Time,TemperatureF,DewpointF,PressureIn,WindDirection,WindDirectionDegrees,WindSpeedMPH,WindSpeedGustMPH,Humidity,HourlyPrecipIn,Conditions,Clouds,dailyrainin,SolarRadiationWatts/m^2,SoftwareType,DateUTC
2013-08-12 00:01:00,71.9,67.8,30.02,NW,313,0.0,0.0,87,0.00,CLR,,0.00,0.0,WeatherDisplay:10.37,2013-08-12 04:01:00,
2013-08-12 00:02:00,71.9,67.8,30.02,NW,313,0.0,0.0,87,0.00,CLR,,0.00,0.0,WeatherDisplay:10.37,2013-08-12 04:02:00,
2013-08-12 00:05:00,71.8,67.7,30.02,NW,313,0.0,0.0,87,0.00,CLR,,0.00,0.0,WeatherDisplay:10.37,2013-08-12 04:05:00,
2013-08-12 00:10:00,71.9,68.2,30.01,ESE,110,1.2,1.2,88,0.00,CLR,,0.00,0.0,WeatherDisplay:10.37,2013-08-12 04:10:00,
2013-08-12 00:15:00,72.0,68.2,30.02,ESE,110,1.2,0.0,88,0.00,CLR,,0.00,0.0,WeatherDisplay:10.37,2013-08-12 04:15:00,
2013-08-12 00:20:00,71.9,68.2,30.02,ESE,110,0.0,0.2,88,0.00,CLR,,0.00,0.0,WeatherDisplay:10.37,2013-08-12 04:20:00,
2013-08-12 00:25:00,71.9,68.2,30.02,ESE,110,1.2,0.0,88,0.00,CLR,,0.00,0.0,WeatherDisplay:10.37,2013-08-12 04:25:00,
2013-08-12 00:30:00,71.9,68.2,30.02,ESE,110,0.0,0.0,88,0.00,CLR,,0.00,0.0,WeatherDisplay:10.37,2013-08-12 04:30:00,
2013-08-12 00:35:00,71.8,68.1,30.02,ESE,110,0.0,0.0,88,0.00,CLR,,0.00,0.0,WeatherDisplay:10.37,2013-08-12 04:35:00,
2013-08-12 00:40:00,71.7,68.3,30.02,ESE,110,0.0,0.0,89,0.00,CLR,,0.00,0.0,WeatherDisplay:10.37,2013-08-12 04:40:00,
2013-08-12 00:45:00,71.5,68.1,30.02,ESE,110,0.0,0.0,89,0.00,CLR,,0.00,0.0,WeatherDisplay:10.37,2013-08-12 04:45:00,
2013-08-12 00:50:00,71.5,68.1,30.02,ESE,110,0.0,0.0,89,0.00,CLR,,0.00,0.0,WeatherDisplay:10.37,2013-08-12 04:50:00,
2013-08-12 00:55:00,71.4,68.3,30.02,ESE,110,1.2,1.2,90,0.00,CLR,,0.00,0.0,WeatherDisplay:10.37,2013-08-12 04:55:00,
2013-08-12 01:00:00,71.4,68.3,30.02,ESE,110,0.0,0.0,90,0.00,CLR,,0.00,0.0,WeatherDisplay:10.37,2013-08-12 05:00:00,
2013-08-12 01:05:00,71.3,68.2,30.02,ESE,110,0.0,0.1,90,0.00,CLR,,0.00,0.0,WeatherDisplay:10.37,2013-08-12 05:05:00,
2013-08-12 01:10:00,71.1,68.0,30.03,ESE,110,0.0,0.0,90,0.00,CLR,,0.00,0.0,WeatherDisplay:10.37,2013-08-12 05:10:00,
2013-08-12 01:15:00,71.0,67.9,30.02,ESE,110,0.0,0.0,90,0.00,CLR,,0.00,0.0,WeatherDisplay:10.37,2013-08-12 05:15:00,
2013-08-12 01:20:00,70.8,67.7,30.02,ESE,110,0.0,0.0,90,0.00,CLR,,0.00,0.0,WeatherDisplay:10.37,2013-08-12 05:20:00,
2013-08-12 01:25:00,70.7,67.9,30.02,ESE,110,1.2,1.2,91,0.00,CLR,,0.00,0.0,WeatherDisplay:10.37,2013-08-12 05:25:00,
2013-08-12 01:30:00,70.7,68.3,30.01,ESE,110,1.2,0.0,92,0.00,CLR,,0.00,0.0,WeatherDisplay:10.37,2013-08-12 05:30:00,
2013-08-12 01:35:00,70.7,68.3,30.01,ESE,110,0.0,0.0,92,0.00,CLR,,0.00,0.0,WeatherDisplay:10.37,2013-08-12 05:35:00,
2013-08-12 01:40:00,70.9,68.5,30.01,ESE,110,1.2,1.2,92,0.00,CLR,,0.00,0.0,WeatherDisplay:10.37,2013-08-12 05:40:00,
2013-08-12 01:45:00,70.9,68.1,30.01,ESE,110,1.2,0.0,91,0.00,CLR,,0.00,0.0,WeatherDisplay:10.37,2013-08-12 05:45:00,
2013-08-12 01:50:00,70.9,68.1,30.01,ESE,110,0.0,0.0,91,0.00,CLR,,0.00,0.0,WeatherDisplay:10.37,2013-08-12 05:50:00,
2013-08-12 01:55:00,71.0,68.6,30.01,ESE,110,1.2,1.2,92,0.00,CLR,,0.00,0.0,WeatherDisplay:10.37,2013-08-12 05:55:00,
2013-08-12 02:00:00,71.0,68.6,30.01,ESE,111,1.2,1.2,92,0.00,OVC,,0.00,0.0,WeatherDisplay:10.37,2013-08-12 06:00:00,
2013-08-12 02:05:00,71.2,68.8,30.01,ESE,111,1.0,1.0,92,0.00,OVC,,0.00,0.0,WeatherDisplay:10.37,2013-08-12 06:05:00,
2013-08-12 02:10:00,71.3,68.5,30.01,ESE,111,1.2,1.2,91,0.00,OVC,,0.00,0.0,WeatherDisplay:10.37,2013-08-12 06:10:00,
2013-08-12 02:15:00,71.3,68.5,30.01,ESE,111,1.2,0.0,91,0.00,OVC,,0.00,0.0,WeatherDisplay:10.37,2013-08-12 06:15:00,
2013-08-12 02:20:00,71.2,68.4,30.01,ESE,111,0.0,0.0,91,0.00,OVC,,0.00,0.0,WeatherDisplay:10.37,2013-08-12 06:20:00,
2013-08-12 02:25:00,71.2,68.4,30.01,ESE,111,0.0,0.0,91,0.00,OVC,,0.00,0.0,WeatherDisplay:10.37,2013-08-12 06:25:00,
2013-08-12 02:30:00,71.1,68.3,30.00,ESE,111,1.2,1.2,91,0.00,OVC,,0.00,0.0,WeatherDisplay:10.37,2013-08-12 06:30:00,
2013-08-12 02:35:00,71.1,68.3,30.00,ESE,111,0.0,0.0,91,0.00,OVC,,0.00,0.0,WeatherDisplay:10.37,2013-08-12 06:35:00,
2013-08-12 02:40:00,71.0,68.2,30.00,ESE,111,1.2,1.2,91,0.00,OVC,,0.00,0.0,WeatherDisplay:10.37,2013-08-12 06:40:00,
2013-08-12 02:45:00,71.0,68.2,30.00,ESE,111,1.0,0.0,91,0.00,OVC,,0.00,0.0,WeatherDisplay:10.37,2013-08-12 06:45:00,
2013-08-12 02:50:00,70.9,68.5,30.00,ESE,111,0.0,0.2,92,0.00,OVC,,0.00,0.0,WeatherDisplay:10.37,2013-08-12 06:50:00,
2013-08-12 02:55:00,70.8,68.4,30.00,ESE,111,0.0,0.0,92,0.00,OVC,,0.00,0.0,WeatherDisplay:10.37,2013-08-12 06:55:00,
2013-08-12 03:00:00,70.8,68.7,30.00,ESE,111,0.0,0.0,93,0.00,FEW,,0.00,0.0,WeatherDisplay:10.37,2013-08-12 07:00:00,
2013-08-12 03:05:00,70.7,68.6,30.00,ESE,111,0.0,0.0,93,0.00,FEW,,0.00,0.0,WeatherDisplay:10.37,2013-08-12 07:05:00,
2013-08-12 03:10:00,70.6,68.5,30.00,ESE,111,0.0,0.0,93,0.00,FEW,,0.00,0.0,WeatherDisplay:10.37,2013-08-12 07:10:00,
2013-08-12 03:15:00,70.5,68.4,30.00,ESE,111,0.0,0.0,93,0.00,FEW,,0.00,0.0,WeatherDisplay:10.37,2013-08-12 07:15:00,
2013-08-12 03:20:00,70.4,68.3,30.00,ESE,111,1.0,1.0,93,0.00,FEW,,0.00,0.0,WeatherDisplay:10.37,2013-08-12 07:20:00,
2013-08-12 03:25:00,70.4,68.3,29.99,ESE,111,0.0,0.0,93,0.00,FEW,,0.00,0.0,WeatherDisplay:10.37,2013-08-12 07:25:00,
2013-08-12 03:30:00,70.4,68.6,29.99,ESE,111,0.0,0.0,94,0.00,FEW,,0.00,0.0,WeatherDisplay:10.37,2013-08-12 07:30:00,
2013-08-12 03:35:00,70.4,68.6,29.99,ESE,111,0.0,0.0,94,0.00,FEW,,0.00,0.0,WeatherDisplay:10.37,2013-08-12 07:35:00,
2013-08-12 03:40:00,70.4,68.6,29.99,ESE,111,0.0,0.0,94,0.00,FEW,,0.00,0.0,WeatherDisplay:10.37,2013-08-12 07:40:00,
2013-08-12 03:45:00,70.5,68.7,29.98,ESE,111,0.0,0.0,94,0.00,FEW,,0.00,0.0,WeatherDisplay:10.37,2013-08-12 07:45:00,
2013-08-12 03:50:00,70.5,68.7,29.98,ESE,111,0.0,0.0,94,0.00,FEW,,0.00,0.0,WeatherDisplay:10.37,2013-08-12 07:50:00,
2013-08-12 03:55:00,70.5,68.7,29.99,ESE,111,0.0,0.0,94,0.00,FEW,,0.00,0.0,WeatherDisplay:10.37,2013-08-12 07:55:00,
2013-08-12 04:00:00,70.4,68.6,29.99,ESE,111,0.0,0.0,94,0.00,BKN,,0.00,0.0,WeatherDisplay:10.37,2013-08-12 08:00:00,
2013-08-12 04:05:00,70.4,68.6,29.99,ESE,111,0.0,0.0,94,0.00,BKN,,0.00,0.0,WeatherDisplay:10.37,2013-08-12 08:05:00,
2013-08-12 04:10:00,70.4,68.6,29.99,ESE,111,1.2,0.0,94,0.00,BKN,,0.00,0.0,WeatherDisplay:10.37,2013-08-12 08:10:00,
2013-08-12 04:15:00,70.4,68.6,29.99,ESE,111,0.0,0.0,94,0.00,BKN,,0.00,0.0,WeatherDisplay:10.37,2013-08-12 08:15:00,
2013-08-12 04:20:00,70.4,68.6,29.99,ESE,111,0.0,0.0,94,0.00,BKN,,0.00,0.0,WeatherDisplay:10.37,2013-08-12 08:20:00,
2013-08-12 04:25:00,70.4,68.9,29.99,ESE,111,1.2,1.2,95,0.00,BKN,,0.00,0.0,WeatherDisplay:10.37,2013-08-12 08:25:00,
2013-08-12 04:30:00,70.4,68.9,29.99,ESE,111,0.0,0.0,95,0.00,BKN,,0.00,0.0,WeatherDisplay:10.37,2013-08-12 08:30:00,
2013-08-12 04:35:00,70.4,68.6,29.99,ESE,111,0.0,0.0,94,0.00,BKN,,0.00,0.0,WeatherDisplay:10.37,2013-08-12 08:35:00,
2013-08-12 04:40:00,70.3,68.5,29.99,ESE,111,0.0,2.0,94,0.00,BKN,,0.00,0.0,WeatherDisplay:10.37,2013-08-12 08:40:00,
2013-08-12 04:45:00,70.3,68.5,29.99,ESE,111,1.2,1.2,94,0.00,BKN,,0.00,0.0,WeatherDisplay:10.37,2013-08-12 08:45:00,
2013-08-12 04:50:00,70.2,68.7,30.00,ESE,111,2.3,2.3,95,0.00,BKN,,0.00,0.0,WeatherDisplay:10.37,2013-08-12 08:50:00,
2013-08-12 04:55:00,70.2,68.7,30.00,ESE,111,1.2,1.2,95,0.00,BKN,,0.00,0.0,WeatherDisplay:10.37,2013-08-12 08:55:00,
2013-08-12 05:00:00,70.2,68.7,30.00,ESE,111,0.0,0.0,95,0.00,OVC,,0.00,0.0,WeatherDisplay:10.37,2013-08-12 09:00:00,
2013-08-12 05:05:00,70.3,68.5,30.00,ESE,111,0.0,0.0,94,0.00,OVC,,0.00,0.0,WeatherDisplay:10.37,2013-08-12 09:05:00,
2013-08-12 05:10:00,70.3,68.5,30.00,ESE,111,0.0,0.0,94,0.00,OVC,,0.00,0.0,WeatherDisplay:10.37,2013-08-12 09:10:00,
2013-08-12 05:15:00,70.3,68.5,30.00,ESE,111,0.0,0.0,94,0.00,OVC,,0.00,0.0,WeatherDisplay:10.37,2013-08-12 09:15:00,
2013-08-12 05:20:00,70.3,68.5,29.99,ESE,111,0.0,0.0,94,0.00,OVC,,0.00,0.0,WeatherDisplay:10.37,2013-08-12 09:20:00,
2013-08-12 05:25:00,70.3,68.5,29.99,ESE,111,0.0,0.0,94,0.00,OVC,,0.00,0.0,WeatherDisplay:10.37,2013-08-12 09:25:00,
2013-08-12 05:30:00,70.3,68.5,29.99,ESE,111,0.0,0.0,94,0.00,OVC,,0.00,0.0,WeatherDisplay:10.37,2013-08-12 09:30:00,
2013-08-12 05:35:00,70.4,68.6,29.99,ESE,111,0.0,0.0,94,0.00,OVC,,0.00,0.0,WeatherDisplay:10.37,2013-08-12 09:35:00,
2013-08-12 05:40:00,70.4,68.6,29.99,ESE,111,0.0,0.0,94,0.00,OVC,,0.00,0.0,WeatherDisplay:10.37,2013-08-12 09:40:00,
2013-08-12 05:45:00,70.4,68.6,29.99,ESE,111,0.0,0.0,94,0.00,OVC,,0.00,0.0,WeatherDisplay:10.37,2013-08-12 09:45:00,
2013-08-12 05:50:00,70.4,68.6,29.99,ESE,111,0.0,0.0,94,0.00,OVC,,0.00,0.0,WeatherDisplay:10.37,2013-08-12 09:50:00,
2013-08-12 05:55:00,70.3,68.5,30.00,ESE,111,0.0,0.0,94,0.00,OVC,,0.00,0.0,WeatherDisplay:10.37,2013-08-12 09:55:00,
2013-08-12 06:00:00,70.3,68.5,30.00,ESE,111,0.0,0.0,94,0.00,BKN,,0.00,0.0,WeatherDisplay:10.37,2013-08-12 10:00:00,
2013-08-12 06:05:00,70.2,68.7,30.00,ESE,111,1.2,1.2,95,0.00,BKN,,0.00,0.0,WeatherDisplay:10.37,2013-08-12 10:05:00,
2013-08-12 06:10:00,70.2,68.4,30.00,ESE,111,0.0,0.0,94,0.00,BKN,,0.00,0.0,WeatherDisplay:10.37,2013-08-12 10:10:00,
2013-08-12 06:15:00,70.2,68.4,30.00,ESE,111,0.0,0.0,94,0.00,BKN,,0.00,0.0,WeatherDisplay:10.37,2013-08-12 10:15:00,
2013-08-12 06:20:00,70.3,68.5,30.00,ESE,111,0.0,0.0,94,0.00,BKN,,0.00,0.0,WeatherDisplay:10.37,2013-08-12 10:20:00,
2013-08-12 06:25:00,70.4,68.6,30.00,ESE,111,0.0,0.0,94,0.00,BKN,,0.00,5.0,WeatherDisplay:10.37,2013-08-12 10:25:00,
2013-08-12 06:30:00,70.4,68.6,30.00,ESE,111,0.0,0.0,94,0.00,BKN,,0.00,7.0,WeatherDisplay:10.37,2013-08-12 10:30:00,
2013-08-12 06:35:00,70.5,68.7,30.00,ESE,111,0.0,0.0,94,0.00,BKN,,0.00,9.0,WeatherDisplay:10.37,2013-08-12 10:35:00,
2013-08-12 06:40:00,70.5,68.7,30.00,ESE,111,0.0,0.0,94,0.00,BKN,,0.00,12.0,WeatherDisplay:10.37,2013-08-12 10:40:00,
2013-08-12 06:45:00,70.5,68.7,30.00,ESE,111,1.0,0.0,94,0.00,BKN,,0.00,16.0,WeatherDisplay:10.37,2013-08-12 10:45:00,
2013-08-12 06:50:00,70.6,68.8,30.00,ESE,111,1.0,1.0,94,0.00,BKN,,0.00,19.0,WeatherDisplay:10.37,2013-08-12 10:50:00,
2013-08-12 06:55:00,70.7,68.9,30.00,ESE,111,1.2,1.2,94,0.00,BKN,,0.00,23.0,WeatherDisplay:10.37,2013-08-12 10:55:00,
2013-08-12 07:00:00,70.7,68.9,30.00,ESE,111,0.0,0.0,94,0.00,OVC,,0.00,16.0,WeatherDisplay:10.37,2013-08-12 11:00:00,
2013-08-12 07:05:00,70.8,69.3,30.00,ESE,111,0.0,0.0,95,0.00,OVC,,0.00,25.0,WeatherDisplay:10.37,2013-08-12 11:05:00,
2013-08-12 07:10:00,70.8,69.0,30.01,ESE,111,1.2,1.2,94,0.00,OVC,,0.00,32.0,WeatherDisplay:10.37,2013-08-12 11:10:00,
2013-08-12 07:15:00,70.8,69.3,30.01,ESE,111,0.0,0.0,95,0.00,OVC,,0.00,42.0,WeatherDisplay:10.37,2013-08-12 11:15:00,
2013-08-12 07:20:00,70.9,69.1,30.01,ESE,111,1.2,1.2,94,0.00,OVC,,0.00,44.0,WeatherDisplay:10.37,2013-08-12 11:20:00,
2013-08-12 07:25:00,71.0,69.2,30.01,ESE,111,1.2,1.2,94,0.00,OVC,,0.00,32.0,WeatherDisplay:10.37,2013-08-12 11:25:00,
2013-08-12 07:30:00,71.1,69.3,30.01,ESE,111,0.0,0.0,94,0.00,OVC,,0.00,28.0,WeatherDisplay:10.37,2013-08-12 11:30:00,
2013-08-12 07:35:00,71.2,69.4,30.01,ESE,111,0.0,0.0,94,0.00,OVC,,0.00,47.0,WeatherDisplay:10.37,2013-08-12 11:35:00,
2013-08-12 07:40:00,71.4,69.3,30.01,ESE,111,0.0,0.0,93,0.00,OVC,,0.00,88.0,WeatherDisplay:10.37,2013-08-12 11:40:00,
2013-08-12 07:45:00,71.6,69.5,30.01,ESE,111,0.0,0.0,93,0.00,OVC,,0.00,81.0,WeatherDisplay:10.37,2013-08-12 11:45:00,
2013-08-12 07:50:00,71.8,69.3,30.01,ESE,111,1.2,1.2,92,0.00,OVC,,0.00,69.0,WeatherDisplay:10.37,2013-08-12 11:50:00,
2013-08-12 07:55:00,71.9,69.4,30.01,ESE,111,1.2,1.2,92,0.00,OVC,,0.00,65.0,WeatherDisplay:10.37,2013-08-12 11:55:00,
2013-08-12 08:00:00,72.1,69.3,30.01,ESE,111,1.0,1.0,91,0.00,BKN,,0.00,105.0,WeatherDisplay:10.37,2013-08-12 12:00:00,
2013-08-12 08:05:00,72.3,69.5,30.01,ESE,111,1.2,0.0,91,0.00,BKN,,0.00,155.0,WeatherDisplay:10.37,2013-08-12 12:05:00,
2013-08-12 08:10:00,72.6,69.8,30.01,NNW,340,3.5,3.5,91,0.00,BKN,,0.00,234.0,WeatherDisplay:10.37,2013-08-12 12:10:00,
2013-08-12 08:15:00,73.0,70.5,30.01,NNW,329,4.6,4.6,92,0.00,BKN,,0.00,163.0,WeatherDisplay:10.37,2013-08-12 12:15:00,
2013-08-12 08:20:00,73.0,69.9,30.01,NNW,333,3.0,3.0,90,0.00,BKN,,0.00,169.0,WeatherDisplay:10.37,2013-08-12 12:20:00,
2013-08-12 08:25:00,72.9,70.1,30.01,NNW,333,2.3,2.3,91,0.00,BKN,,0.00,148.0,WeatherDisplay:10.37,2013-08-12 12:25:00,
2013-08-12 08:30:00,72.8,70.3,30.01,NNW,333,0.0,0.0,92,0.00,BKN,,0.00,125.0,WeatherDisplay:10.37,2013-08-12 12:30:00,
2013-08-12 08:35:00,73.0,70.5,30.00,NNW,333,0.0,0.0,92,0.00,BKN,,0.00,121.0,WeatherDisplay:10.37,2013-08-12 12:35:00,
2013-08-12 08:40:00,73.1,70.3,30.00,NNW,333,0.0,0.0,91,0.00,BKN,,0.00,128.0,WeatherDisplay:10.37,2013-08-12 12:40:00,
2013-08-12 08:45:00,73.2,70.4,30.00,NNW,333,0.0,0.0,91,0.00,BKN,,0.00,229.0,WeatherDisplay:10.37,2013-08-12 12:45:00,
2013-08-12 08:50:00,73.5,70.4,30.00,NNW,333,0.0,0.0,90,0.00,BKN,,0.00,309.0,WeatherDisplay:10.37,2013-08-12 12:50:00,
2013-08-12 08:55:00,74.3,70.8,30.00,NNW,333,1.2,1.2,89,0.00,BKN,,0.00,427.0,WeatherDisplay:10.37,2013-08-12 12:55:00,
2013-08-12 09:00:00,75.4,71.3,30.00,NNW,338,2.3,2.3,87,0.00,BKN,,0.00,380.0,WeatherDisplay:10.37,2013-08-12 13:00:00,
2013-08-12 09:05:00,75.3,70.1,30.00,NNW,338,1.2,1.2,84,0.00,BKN,,0.00,160.0,WeatherDisplay:10.37,2013-08-12 13:05:00,
2013-08-12 09:10:00,74.8,70.0,30.00,NNW,338,1.2,0.0,85,0.00,BKN,,0.00,174.0,WeatherDisplay:10.37,2013-08-12 13:10:00,
2013-08-12 09:15:00,74.6,70.1,30.00,NNW,338,3.5,3.5,86,0.00,BKN,,0.00,211.0,WeatherDisplay:10.37,2013-08-12 13:15:00,
2013-08-12 09:20:00,74.3,69.8,30.00,NNW,337,2.3,2.3,86,0.00,BKN,,0.00,209.0,WeatherDisplay:10.37,2013-08-12 13:20:00,
2013-08-12 09:25:00,74.1,70.0,30.01,NNW,340,1.2,1.2,87,0.00,BKN,,0.00,200.0,WeatherDisplay:10.37,2013-08-12 13:25:00,
2013-08-12 09:30:00,74.2,70.1,30.01,NNW,340,0.0,0.0,87,0.00,BKN,,0.00,206.0,WeatherDisplay:10.37,2013-08-12 13:30:00,
2013-08-12 09:35:00,74.6,70.5,30.01,NNW,340,2.3,2.3,87,0.00,BKN,,0.00,234.0,WeatherDisplay:10.37,2013-08-12 13:35:00,
2013-08-12 09:40:00,74.7,70.2,30.01,NNW,340,1.2,1.2,86,0.00,BKN,,0.00,288.0,WeatherDisplay:10.37,2013-08-12 13:40:00,
2013-08-12 09:45:00,75.3,70.8,30.01,NNW,343,1.2,1.2,86,0.00,BKN,,0.00,336.0,WeatherDisplay:10.37,2013-08-12 13:45:00,
2013-08-12 09:50:00,76.0,71.8,30.00,NW,321,4.6,4.6,87,0.00,BKN,,0.00,359.0,WeatherDisplay:10.37,2013-08-12 13:50:00,
2013-08-12 09:55:00,76.3,71.1,30.01,NNW,339,3.5,3.5,84,0.00,BKN,,0.00,422.0,WeatherDisplay:10.37,2013-08-12 13:55:00,
2013-08-12 10:00:00,76.7,70.8,30.01,NNW,345,1.2,1.2,82,0.00,OVC,,0.00,457.0,WeatherDisplay:10.37,2013-08-12 14:00:00,
2013-08-12 10:05:00,76.5,70.6,30.01,NNW,346,2.3,2.3,82,0.00,OVC,,0.00,294.0,WeatherDisplay:10.37,2013-08-12 14:05:00,
2013-08-12 10:10:00,76.7,71.1,30.01,NNW,346,2.3,2.3,83,0.00,OVC,,0.00,503.0,WeatherDisplay:10.37,2013-08-12 14:10:00,
2013-08-12 10:15:00,77.5,71.2,30.01,NNW,334,3.5,3.5,81,0.00,OVC,,0.00,575.0,WeatherDisplay:10.37,2013-08-12 14:15:00,
2013-08-12 10:20:00,77.3,70.6,30.01,NNW,334,1.2,1.2,80,0.00,OVC,,0.00,617.0,WeatherDisplay:10.37,2013-08-12 14:20:00,
2013-08-12 10:25:00,77.5,70.5,30.01,NNW,336,2.3,2.3,79,0.00,OVC,,0.00,654.0,WeatherDisplay:10.37,2013-08-12 14:25:00,
2013-08-12 10:30:00,77.6,70.6,30.01,NNW,338,1.2,1.2,79,0.00,OVC,,0.00,721.0,WeatherDisplay:10.37,2013-08-12 14:30:00,
2013-08-12 10:35:00,78.2,70.0,30.01,NNW,338,1.2,1.2,76,0.00,OVC,,0.00,770.0,WeatherDisplay:10.37,2013-08-12 14:35:00,
2013-08-12 10:40:00,78.9,70.7,30.01,NNW,345,1.2,1.2,76,0.00,OVC,,0.00,779.0,WeatherDisplay:10.37,2013-08-12 14:40:00,
2013-08-12 10:45:00,78.4,70.2,30.01,NNW,348,2.3,2.3,76,0.00,OVC,,0.00,742.0,WeatherDisplay:10.37,2013-08-12 14:45:00,
2013-08-12 10:50:00,77.9,70.5,30.01,NNW,348,1.2,1.2,78,0.00,OVC,,0.00,441.0,WeatherDisplay:10.37,2013-08-12 14:50:00,
2013-08-12 10:55:00,77.8,70.8,30.01,NNW,348,1.2,1.2,79,0.00,OVC,,0.00,274.0,WeatherDisplay:10.37,2013-08-12 14:55:00,
2013-08-12 11:00:00,78.0,71.0,30.01,NNW,348,1.2,1.2,79,0.00,FEW,,0.00,761.0,WeatherDisplay:10.37,2013-08-12 15:00:00,
2013-08-12 11:05:00,78.2,70.4,30.01,NNW,348,1.2,1.2,77,0.00,FEW,,0.00,733.0,WeatherDisplay:10.37,2013-08-12 15:05:00,
2013-08-12 11:10:00,78.4,71.0,30.01,NNW,342,3.5,3.5,78,0.00,FEW,,0.00,707.0,WeatherDisplay:10.37,2013-08-12 15:10:00,
2013-08-12 11:15:00,79.4,71.6,30.01,NNW,342,1.2,1.2,77,0.00,FEW,,0.00,675.0,WeatherDisplay:10.37,2013-08-12 15:15:00,
2013-08-12 11:20:00,79.4,71.9,30.00,NNW,327,4.6,4.6,78,0.00,FEW,,0.00,726.0,WeatherDisplay:10.37,2013-08-12 15:20:00,
2013-08-12 11:25:00,79.4,71.2,30.01,NNW,333,4.6,4.6,76,0.00,FEW,,0.00,761.0,WeatherDisplay:10.37,2013-08-12 15:25:00,
2013-08-12 11:30:00,79.7,71.1,30.00,NNW,343,2.3,2.3,75,0.00,FEW,,0.00,788.0,WeatherDisplay:10.37,2013-08-12 15:30:00,
2013-08-12 11:35:00,79.6,71.8,30.00,NW,326,3.5,3.5,77,0.00,FEW,,0.00,763.0,WeatherDisplay:10.37,2013-08-12 15:35:00,
2013-08-12 11:40:00,79.9,71.3,30.00,NNW,327,5.0,5.0,75,0.00,FEW,,0.00,729.0,WeatherDisplay:10.37,2013-08-12 15:40:00,
2013-08-12 11:45:00,80.0,72.1,30.00,NNW,327,2.3,2.3,77,0.00,FEW,,0.00,775.0,WeatherDisplay:10.37,2013-08-12 15:45:00,
2013-08-12 11:50:00,80.8,71.3,30.00,NNW,329,3.5,3.5,73,0.00,FEW,,0.00,763.0,WeatherDisplay:10.37,2013-08-12 15:50:00,
2013-08-12 11:55:00,80.4,71.3,30.00,North,5,2.3,2.3,74,0.00,FEW,,0.00,814.0,WeatherDisplay:10.37,2013-08-12 15:55:00,
2013-08-12 12:00:00,80.2,70.8,30.00,NW,313,2.0,2.0,73,0.00,SCT,,0.00,473.0,WeatherDisplay:10.37,2013-08-12 16:00:00,
2013-08-12 12:05:00,80.4,71.7,30.00,NNW,335,3.0,3.0,75,0.00,SCT,,0.00,844.0,WeatherDisplay:10.37,2013-08-12 16:05:00,
2013-08-12 12:10:00,80.2,70.8,30.00,North,5,2.3,2.3,73,0.00,SCT,,0.00,397.0,WeatherDisplay:10.37,2013-08-12 16:10:00,
2013-08-12 12:15:00,79.6,70.2,30.00,NNW,336,2.0,2.0,73,0.00,SCT,,0.00,244.0,WeatherDisplay:10.37,2013-08-12 16:15:00,
2013-08-12 12:20:00,80.4,71.3,30.00,NNW,332,4.0,4.0,74,0.00,SCT,,0.00,824.0,WeatherDisplay:10.37,2013-08-12 16:20:00,
2013-08-12 12:25:00,80.6,70.7,30.00,North,5,3.5,3.5,72,0.00,SCT,,0.00,865.0,WeatherDisplay:10.37,2013-08-12 16:25:00,
2013-08-12 12:30:00,80.7,71.2,30.00,NW,321,6.9,6.9,73,0.00,SCT,,0.00,858.0,WeatherDisplay:10.37,2013-08-12 16:30:00,
2013-08-12 12:35:00,80.8,70.9,30.00,NW,319,4.6,4.6,72,0.00,SCT,,0.00,882.0,WeatherDisplay:10.37,2013-08-12 16:35:00,
2013-08-12 12:40:00,81.7,69.7,30.00,NNW,348,3.5,3.5,67,0.00,SCT,,0.00,833.0,WeatherDisplay:10.37,2013-08-12 16:40:00,
2013-08-12 12:45:00,80.5,71.4,30.00,NW,324,3.5,3.5,74,0.00,SCT,,0.00,870.0,WeatherDisplay:10.37,2013-08-12 16:45:00,
2013-08-12 12:50:00,81.2,70.1,30.00,North,355,2.0,2.0,69,0.00,SCT,,0.00,867.0,WeatherDisplay:10.37,2013-08-12 16:50:00,
2013-08-12 12:55:00,81.6,69.1,30.00,NE,49,1.2,1.2,66,0.00,SCT,,0.00,889.0,WeatherDisplay:10.37,2013-08-12 16:55:00,
2013-08-12 13:00:00,82.1,67.8,30.00,NNE,24,2.3,2.3,62,0.00,SCT,,0.00,921.0,WeatherDisplay:10.37,2013-08-12 17:00:00,
2013-08-12 13:05:00,81.9,69.0,30.00,West,273,5.8,5.8,65,0.00,SCT,,0.00,895.0,WeatherDisplay:10.37,2013-08-12 17:05:00,
2013-08-12 13:10:00,82.4,68.5,30.00,WSW,242,3.5,3.5,63,0.00,SCT,,0.00,935.0,WeatherDisplay:10.37,2013-08-12 17:10:00,
2013-08-12 13:15:00,82.2,68.3,30.01,NNW,329,5.8,5.8,63,0.00,SCT,,0.00,900.0,WeatherDisplay:10.37,2013-08-12 17:15:00,
2013-08-12 13:20:00,82.1,68.3,30.01,NNW,330,6.9,6.9,63,0.00,SCT,,0.00,988.0,WeatherDisplay:10.37,2013-08-12 17:20:00,
2013-08-12 13:25:00,81.8,68.4,30.00,WNW,285,5.8,5.8,64,0.00,SCT,,0.00,874.0,WeatherDisplay:10.37,2013-08-12 17:25:00,
2013-08-12 13:30:00,81.9,68.5,30.00,NNW,338,3.5,3.5,64,0.00,SCT,,0.00,858.0,WeatherDisplay:10.37,2013-08-12 17:30:00,
2013-08-12 13:35:00,82.2,66.9,30.00,WNW,290,5.8,5.8,60,0.00,SCT,,0.00,889.0,WeatherDisplay:10.37,2013-08-12 17:35:00,
2013-08-12 13:40:00,82.3,69.4,30.00,South,184,3.5,3.5,65,0.00,SCT,,0.00,884.0,WeatherDisplay:10.37,2013-08-12 17:40:00,
2013-08-12 13:45:00,81.9,66.6,30.00,NW,313,6.0,6.0,60,0.00,SCT,,0.00,898.0,WeatherDisplay:10.37,2013-08-12 17:45:00,
2013-08-12 13:50:00,81.4,68.1,30.00,NNE,18,3.5,3.5,64,0.00,SCT,,0.00,441.0,WeatherDisplay:10.37,2013-08-12 17:50:00,
2013-08-12 13:55:00,82.1,66.8,30.00,NNE,23,1.2,1.2,60,0.00,SCT,,0.00,867.0,WeatherDisplay:10.37,2013-08-12 17:55:00,
2013-08-12 14:00:00,82.4,66.1,30.00,NNW,333,8.1,8.1,58,0.00,SCT,,0.00,840.0,WeatherDisplay:10.37,2013-08-12 18:00:00,
2013-08-12 14:05:00,82.7,67.4,30.00,NW,325,2.3,2.3,60,0.00,SCT,,0.00,824.0,WeatherDisplay:10.37,2013-08-12 18:05:00,
2013-08-12 14:10:00,82.4,67.6,30.00,NW,308,5.0,5.0,61,0.00,SCT,,0.00,831.0,WeatherDisplay:10.37,2013-08-12 18:10:00,
2013-08-12 14:16:00,82.5,68.2,30.00,WNW,288,5.8,5.8,62,0.00,SCT,,0.00,831.0,WeatherDisplay:10.37,2013-08-12 18:16:00,
2013-08-12 14:21:00,82.9,68.1,30.00,WNW,294,8.1,8.1,61,0.00,SCT,,0.00,821.0,WeatherDisplay:10.37,2013-08-12 18:21:00,
2013-08-12 14:26:00,82.8,66.0,30.00,NNW,332,4.6,4.6,57,0.00,SCT,,0.00,782.0,WeatherDisplay:10.37,2013-08-12 18:26:00,
2013-08-12 14:31:00,82.8,66.5,30.00,NW,326,4.6,4.6,58,0.00,SCT,,0.00,738.0,WeatherDisplay:10.37,2013-08-12 18:31:00,
2013-08-12 14:37:00,83.3,66.5,30.00,NW,313,5.8,5.8,57,0.00,SCT,,0.00,675.0,WeatherDisplay:10.37,2013-08-12 18:37:00,
2013-08-12 14:42:00,83.0,67.2,29.99,WNW,290,3.5,3.5,59,0.00,SCT,,0.00,666.0,WeatherDisplay:10.37,2013-08-12 18:42:00,
2013-08-12 14:47:00,83.8,69.4,29.99,NNW,329,5.0,5.0,62,0.00,SCT,,0.00,680.0,WeatherDisplay:10.37,2013-08-12 18:47:00,
2013-08-12 14:52:00,84.1,68.7,29.99,East,80,1.2,1.2,60,0.00,SCT,,0.00,714.0,WeatherDisplay:10.37,2013-08-12 18:52:00,
2013-08-12 14:57:00,84.3,68.4,29.99,WNW,303,8.0,8.0,59,0.00,SCT,,0.00,788.0,WeatherDisplay:10.37,2013-08-12 18:57:00,
2013-08-12 15:02:00,82.8,65.5,29.99,WNW,303,1.2,1.2,56,0.00,SCT,,0.00,262.0,WeatherDisplay:10.37,2013-08-12 19:02:00,
2013-08-12 15:07:00,83.2,68.3,29.98,NW,311,9.2,9.2,61,0.00,SCT,,0.00,780.0,WeatherDisplay:10.37,2013-08-12 19:07:00,
2013-08-12 15:12:00,83.0,67.2,29.98,NNW,346,4.0,4.0,59,0.00,SCT,,0.00,751.0,WeatherDisplay:10.37,2013-08-12 19:12:00,
2013-08-12 15:17:00,83.8,68.9,29.98,NNW,340,5.8,5.8,61,0.00,SCT,,0.00,738.0,WeatherDisplay:10.37,2013-08-12 19:17:00,
2013-08-12 15:22:00,83.7,66.3,29.98,NNW,340,2.0,2.0,56,0.00,SCT,,0.00,759.0,WeatherDisplay:10.37,2013-08-12 19:22:00,
2013-08-12 15:27:00,83.8,66.9,29.98,NNW,332,5.8,5.8,57,0.00,SCT,,0.00,759.0,WeatherDisplay:10.37,2013-08-12 19:27:00,
2013-08-12 15:32:00,83.5,65.6,29.98,NW,310,9.2,9.2,55,0.00,SCT,,0.00,744.0,WeatherDisplay:10.37,2013-08-12 19:32:00,
2013-08-12 15:37:00,83.6,66.2,29.98,NW,317,10.4,10.4,56,0.00,SCT,,0.00,717.0,WeatherDisplay:10.37,2013-08-12 19:37:00,
2013-08-12 15:42:00,83.2,64.8,29.98,WNW,294,3.5,3.5,54,0.00,SCT,,0.00,686.0,WeatherDisplay:10.37,2013-08-12 19:42:00,
2013-08-12 15:47:00,83.7,67.8,29.98,WNW,296,6.9,6.9,59,0.00,SCT,,0.00,673.0,WeatherDisplay:10.37,2013-08-12 19:47:00,
2013-08-12 15:52:00,83.6,65.7,29.97,NW,313,5.0,5.0,55,0.00,SCT,,0.00,652.0,WeatherDisplay:10.37,2013-08-12 19:52:00,
2013-08-12 15:57:00,83.6,68.2,29.98,WSW,242,6.9,6.9,60,0.00,SCT,,0.00,642.0,WeatherDisplay:10.37,2013-08-12 19:57:00,
2013-08-12 16:02:00,83.7,66.8,29.97,NNW,331,8.1,8.1,57,0.00,CLR,,0.00,631.0,WeatherDisplay:10.37,2013-08-12 20:02:00,
2013-08-12 16:07:00,83.7,67.4,29.97,NW,314,3.5,3.6,58,0.00,CLR,,0.00,613.0,WeatherDisplay:10.37,2013-08-12 20:07:00,
2013-08-12 16:12:00,83.9,66.5,29.97,NNW,333,4.6,4.6,56,0.00,CLR,,0.00,605.0,WeatherDisplay:10.37,2013-08-12 20:12:00,
2013-08-12 16:17:00,84.1,66.7,29.97,NW,324,5.8,5.8,56,0.00,CLR,,0.00,592.0,WeatherDisplay:10.37,2013-08-12 20:17:00,
2013-08-12 16:23:00,83.6,66.2,29.97,WNW,302,6.9,6.9,56,0.00,CLR,,0.00,578.0,WeatherDisplay:10.37,2013-08-12 20:23:00,
2013-08-12 16:28:00,83.4,65.5,29.96,NW,309,8.0,8.0,55,0.00,CLR,,0.00,566.0,WeatherDisplay:10.37,2013-08-12 20:28:00,
2013-08-12 16:33:00,83.3,64.9,29.97,NW,304,4.6,4.6,54,0.00,CLR,,0.00,552.0,WeatherDisplay:10.37,2013-08-12 20:33:00,
2013-08-12 16:38:00,83.5,67.2,29.97,NW,320,6.0,6.0,58,0.00,CLR,,0.00,512.0,WeatherDisplay:10.37,2013-08-12 20:38:00,
2013-08-12 16:43:00,84.0,65.0,29.96,WNW,297,4.0,4.0,53,0.00,CLR,,0.00,517.0,WeatherDisplay:10.37,2013-08-12 20:43:00,
2013-08-12 16:48:00,83.7,65.3,29.96,West,268,2.3,2.3,54,0.00,CLR,,0.00,485.0,WeatherDisplay:10.37,2013-08-12 20:48:00,
2013-08-12 16:53:00,83.8,66.9,29.96,NW,324,5.8,5.8,57,0.00,CLR,,0.00,450.0,WeatherDisplay:10.37,2013-08-12 20:53:00,
2013-08-12 16:58:00,83.6,65.2,29.95,NW,315,4.6,4.6,54,0.00,CLR,,0.00,483.0,WeatherDisplay:10.37,2013-08-12 20:58:00,
2013-08-12 17:03:00,83.3,67.0,29.95,NW,323,3.5,3.5,58,0.00,CLR,,0.00,446.0,WeatherDisplay:10.37,2013-08-12 21:03:00,
2013-08-12 17:08:00,83.5,64.6,29.95,NW,319,2.3,2.3,53,0.00,CLR,,0.00,439.0,WeatherDisplay:10.37,2013-08-12 21:08:00,
2013-08-12 17:13:00,83.5,65.1,29.96,East,84,2.0,2.0,54,0.00,CLR,,0.00,429.0,WeatherDisplay:10.37,2013-08-12 21:13:00,
2013-08-12 17:18:00,83.5,65.6,29.95,NNW,329,1.2,0.0,55,0.00,CLR,,0.00,434.0,WeatherDisplay:10.37,2013-08-12 21:18:00,
2013-08-12 17:23:00,83.6,68.7,29.95,WNW,287,4.0,4.0,61,0.00,CLR,,0.00,413.0,WeatherDisplay:10.37,2013-08-12 21:23:00,
2013-08-12 17:28:00,83.6,66.2,29.95,West,274,4.0,4.0,56,0.00,CLR,,0.00,378.0,WeatherDisplay:10.37,2013-08-12 21:28:00,
2013-08-12 17:33:00,83.7,67.4,29.95,NW,309,2.3,2.3,58,0.00,CLR,,0.00,359.0,WeatherDisplay:10.37,2013-08-12 21:33:00,
2013-08-12 17:38:00,83.8,66.9,29.95,NW,317,5.8,5.8,57,0.00,CLR,,0.00,352.0,WeatherDisplay:10.37,2013-08-12 21:38:00,
2013-08-12 17:43:00,83.6,66.2,29.95,NW,319,5.0,5.0,56,0.00,CLR,,0.00,330.0,WeatherDisplay:10.37,2013-08-12 21:43:00,
2013-08-12 17:48:00,83.4,66.1,29.95,NW,304,5.0,5.0,56,0.00,CLR,,0.00,315.0,WeatherDisplay:10.37,2013-08-12 21:48:00,
2013-08-12 17:53:00,83.4,66.1,29.95,WNW,290,5.8,5.8,56,0.00,CLR,,0.00,304.0,WeatherDisplay:10.37,2013-08-12 21:53:00,
2013-08-12 17:58:00,83.2,66.4,29.95,WNW,292,6.9,6.9,57,0.00,FEW,,0.00,294.0,WeatherDisplay:10.37,2013-08-12 21:58:00,
2013-08-12 18:03:00,83.1,65.8,29.95,NNW,328,3.5,3.5,56,0.00,FEW,,0.00,250.0,WeatherDisplay:10.37,2013-08-12 22:03:00,
2013-08-12 18:08:00,82.8,66.5,29.95,NW,309,4.6,4.6,58,0.00,FEW,,0.00,253.0,WeatherDisplay:10.37,2013-08-12 22:08:00,
2013-08-12 18:13:00,82.8,66.5,29.95,NW,317,3.5,3.5,58,0.00,FEW,,0.00,234.0,WeatherDisplay:10.37,2013-08-12 22:13:00,
2013-08-12 18:18:00,82.9,65.6,29.94,NNW,328,2.0,2.0,56,0.00,FEW,,0.00,216.0,WeatherDisplay:10.37,2013-08-12 22:18:00,
2013-08-12 18:23:00,83.0,65.7,29.94,NW,304,3.5,3.5,56,0.00,FEW,,0.00,186.0,WeatherDisplay:10.37,2013-08-12 22:23:00,
2013-08-12 18:28:00,83.0,67.2,29.94,NW,315,3.5,3.5,59,0.00,FEW,,0.00,174.0,WeatherDisplay:10.37,2013-08-12 22:28:00,
2013-08-12 18:33:00,83.0,64.6,29.94,NW,315,1.2,1.2,54,0.00,FEW,,0.00,176.0,WeatherDisplay:10.37,2013-08-12 22:33:00,
2013-08-12 18:38:00,83.2,66.9,29.94,WSW,245,2.3,2.3,58,0.00,FEW,,0.00,171.0,WeatherDisplay:10.37,2013-08-12 22:38:00,
2013-08-12 18:43:00,83.1,68.3,29.94,SSW,212,3.5,3.5,61,0.00,FEW,,0.00,141.0,WeatherDisplay:10.37,2013-08-12 22:43:00,
2013-08-12 18:48:00,82.8,68.0,29.94,South,171,2.3,2.3,61,0.00,FEW,,0.00,127.0,WeatherDisplay:10.37,2013-08-12 22:48:00,
2013-08-12 18:53:00,82.4,68.1,29.94,South,171,0.0,0.1,62,0.00,FEW,,0.00,91.0,WeatherDisplay:10.37,2013-08-12 22:53:00,
2013-08-12 18:58:00,82.0,68.2,29.94,South,171,1.2,1.2,63,0.00,CLR,,0.00,97.0,WeatherDisplay:10.37,2013-08-12 22:58:00,
2013-08-12 19:03:00,81.6,68.7,29.94,South,171,2.3,2.3,65,0.00,CLR,,0.00,65.0,WeatherDisplay:10.37,2013-08-12 23:03:00,
2013-08-12 19:08:00,81.1,69.1,29.94,South,171,1.2,0.0,67,0.00,CLR,,0.00,56.0,WeatherDisplay:10.37,2013-08-12 23:08:00,
2013-08-12 19:13:00,80.5,69.0,29.94,South,171,0.0,0.0,68,0.00,CLR,,0.00,49.0,WeatherDisplay:10.37,2013-08-12 23:13:00,
2013-08-12 19:18:00,80.1,68.2,29.94,South,171,0.0,0.0,67,0.00,CLR,,0.00,42.0,WeatherDisplay:10.37,2013-08-12 23:18:00,
2013-08-12 19:23:00,79.8,68.3,29.94,South,171,1.2,1.2,68,0.00,CLR,,0.00,44.0,WeatherDisplay:10.37,2013-08-12 23:23:00,
2013-08-12 19:28:00,79.5,68.0,29.94,South,171,1.2,1.2,68,0.00,CLR,,0.00,44.0,WeatherDisplay:10.37,2013-08-12 23:28:00,
2013-08-12 19:33:00,79.3,68.2,29.94,South,171,0.0,0.0,69,0.00,CLR,,0.00,39.0,WeatherDisplay:10.37,2013-08-12 23:33:00,
2013-08-12 19:38:00,79.1,67.2,29.94,South,171,0.0,0.0,67,0.00,CLR,,0.00,33.0,WeatherDisplay:10.37,2013-08-12 23:38:00,
2013-08-12 19:43:00,79.0,67.1,29.94,South,171,1.2,1.2,67,0.00,CLR,,0.00,28.0,WeatherDisplay:10.37,2013-08-12 23:43:00,
2013-08-12 19:48:00,78.8,66.9,29.94,South,171,0.0,0.0,67,0.00,CLR,,0.00,21.0,WeatherDisplay:10.37,2013-08-12 23:48:00,
2013-08-12 19:53:00,78.7,67.2,29.94,South,171,1.2,1.2,68,0.00,CLR,,0.00,12.0,WeatherDisplay:10.37,2013-08-12 23:53:00,
2013-08-12 19:58:00,78.5,67.9,29.94,South,171,0.0,0.0,70,0.00,CLR,,0.00,7.0,WeatherDisplay:10.37,2013-08-12 23:58:00,
2013-08-12 20:03:00,78.2,68.0,29.94,South,171,1.2,1.2,71,0.00,CLR,,0.00,0.0,WeatherDisplay:10.37,2013-08-13 00:03:00,
2013-08-12 20:08:00,77.8,68.0,29.94,South,171,1.2,1.2,72,0.00,CLR,,0.00,0.0,WeatherDisplay:10.37,2013-08-13 00:08:00,
2013-08-12 20:13:00,77.6,67.9,29.94,South,171,0.0,0.1,72,0.00,CLR,,0.00,0.0,WeatherDisplay:10.37,2013-08-13 00:13:00,
2013-08-12 20:18:00,77.4,68.1,29.93,South,171,1.2,1.2,73,0.00,CLR,,0.00,0.0,WeatherDisplay:10.37,2013-08-13 00:18:00,
2013-08-12 20:23:00,77.1,67.8,29.93,SE,144,2.3,2.3,73,0.00,CLR,,0.00,0.0,WeatherDisplay:10.37,2013-08-13 00:23:00,
2013-08-12 20:28:00,76.8,67.9,29.93,SE,144,1.2,1.2,74,0.00,CLR,,0.00,0.0,WeatherDisplay:10.37,2013-08-13 00:28:00,
2013-08-12 20:33:00,76.6,68.1,29.93,SE,144,1.2,0.0,75,0.00,CLR,,0.00,0.0,WeatherDisplay:10.37,2013-08-13 00:33:00,
2013-08-12 20:38:00,76.5,68.4,29.93,SE,144,1.2,1.2,76,0.00,CLR,,0.00,0.0,WeatherDisplay:10.37,2013-08-13 00:38:00,
2013-08-12 20:43:00,76.3,68.2,29.93,SE,144,1.2,1.2,76,0.00,CLR,,0.00,0.0,WeatherDisplay:10.37,2013-08-13 00:43:00,
2013-08-12 20:48:00,76.1,68.4,29.93,SE,144,1.2,0.0,77,0.00,CLR,,0.00,0.0,WeatherDisplay:10.37,2013-08-13 00:48:00,
2013-08-12 20:53:00,75.9,68.2,29.93,SE,144,0.0,0.0,77,0.00,CLR,,0.00,0.0,WeatherDisplay:10.37,2013-08-13 00:53:00,
2013-08-12 20:58:00,75.8,67.7,29.93,SE,144,0.0,0.0,76,0.00,CLR,,0.00,0.0,WeatherDisplay:10.37,2013-08-13 00:58:00,
2013-08-12 21:04:00,75.7,68.0,29.93,SE,144,0.0,0.0,77,0.00,CLR,,0.00,0.0,WeatherDisplay:10.37,2013-08-13 01:04:00,
2013-08-12 21:09:00,75.6,67.9,29.93,SE,144,0.0,0.0,77,0.00,CLR,,0.00,0.0,WeatherDisplay:10.37,2013-08-13 01:09:00,
2013-08-12 21:14:00,75.5,67.8,29.93,SE,144,0.0,0.0,77,0.00,CLR,,0.00,0.0,WeatherDisplay:10.37,2013-08-13 01:14:00,
2013-08-12 21:19:00,75.5,67.8,29.93,SE,144,0.0,0.0,77,0.00,CLR,,0.00,0.0,WeatherDisplay:10.37,2013-08-13 01:19:00,
2013-08-12 21:24:00,75.4,67.7,29.93,SE,144,0.0,0.0,77,0.00,CLR,,0.00,0.0,WeatherDisplay:10.37,2013-08-13 01:24:00,
2013-08-12 21:29:00,75.3,67.6,29.93,SE,144,0.0,0.0,77,0.00,CLR,,0.00,0.0,WeatherDisplay:10.37,2013-08-13 01:29:00,
2013-08-12 21:34:00,75.1,67.4,29.93,SE,144,0.0,0.0,77,0.00,CLR,,0.00,0.0,WeatherDisplay:10.37,2013-08-13 01:34:00,
2013-08-12 21:39:00,74.9,67.6,29.93,SE,144,0.0,0.0,78,0.00,CLR,,0.00,0.0,WeatherDisplay:10.37,2013-08-13 01:39:00,
2013-08-12 21:44:00,74.8,67.5,29.93,SE,144,0.0,0.0,78,0.00,CLR,,0.00,0.0,WeatherDisplay:10.37,2013-08-13 01:44:00,
2013-08-12 21:49:00,74.9,67.6,29.93,SE,144,0.0,0.0,78,0.00,CLR,,0.00,0.0,WeatherDisplay:10.37,2013-08-13 01:49:00,
2013-08-12 21:54:00,74.9,67.6,29.93,SE,144,0.0,0.0,78,0.00,CLR,,0.00,0.0,WeatherDisplay:10.37,2013-08-13 01:54:00,
2013-08-12 21:59:00,74.8,67.5,29.93,SE,144,0.0,0.0,78,0.00,CLR,,0.00,0.0,WeatherDisplay:10.37,2013-08-13 01:59:00,
2013-08-12 22:04:00,74.6,67.7,29.92,SE,144,0.0,0.0,79,0.00,CLR,,0.00,0.0,WeatherDisplay:10.37,2013-08-13 02:04:00,
2013-08-12 22:09:00,74.4,67.5,29.93,SE,144,0.0,0.0,79,0.00,CLR,,0.00,0.0,WeatherDisplay:10.37,2013-08-13 02:09:00,
2013-08-12 22:14:00,74.2,67.3,29.92,SE,144,0.0,0.0,79,0.00,CLR,,0.00,0.0,WeatherDisplay:10.37,2013-08-13 02:14:00,
2013-08-12 22:19:00,74.0,67.1,29.92,SE,144,0.0,0.0,79,0.00,CLR,,0.00,0.0,WeatherDisplay:10.37,2013-08-13 02:19:00,
2013-08-12 22:24:00,73.9,67.3,29.92,SE,144,0.0,0.0,80,0.00,CLR,,0.00,0.0,WeatherDisplay:10.37,2013-08-13 02:24:00,
2013-08-12 22:29:00,73.8,67.2,29.92,SE,144,0.0,0.0,80,0.00,CLR,,0.00,0.0,WeatherDisplay:10.37,2013-08-13 02:29:00,
2013-08-12 22:34:00,73.8,67.2,29.92,SE,144,0.0,0.0,80,0.00,CLR,,0.00,0.0,WeatherDisplay:10.37,2013-08-13 02:34:00,
2013-08-12 22:39:00,73.7,67.1,29.92,SE,144,0.0,0.0,80,0.00,CLR,,0.00,0.0,WeatherDisplay:10.37,2013-08-13 02:39:00,
2013-08-12 22:44:00,73.5,66.9,29.92,SE,144,0.0,0.0,80,0.00,CLR,,0.00,0.0,WeatherDisplay:10.37,2013-08-13 02:44:00,
2013-08-12 22:49:00,73.5,66.9,29.92,SE,144,0.0,0.0,80,0.00,CLR,,0.00,0.0,WeatherDisplay:10.37,2013-08-13 02:49:00,
2013-08-12 22:54:00,73.7,67.1,29.92,SE,144,0.0,0.0,80,0.00,CLR,,0.00,0.0,WeatherDisplay:10.37,2013-08-13 02:54:00,
2013-08-12 22:59:00,73.8,66.9,29.92,SE,144,0.0,0.0,79,0.00,CLR,,0.00,0.0,WeatherDisplay:10.37,2013-08-13 02:59:00,
2013-08-12 23:04:00,74.0,67.1,29.92,SE,144,0.0,0.0,79,0.00,CLR,,0.00,0.0,WeatherDisplay:10.37,2013-08-13 03:04:00,
2013-08-12 23:09:00,74.0,67.1,29.92,SE,144,0.0,0.0,79,0.00,CLR,,0.00,0.0,WeatherDisplay:10.37,2013-08-13 03:09:00,
2013-08-12 23:14:00,74.0,67.1,29.92,SE,143,1.0,1.0,79,0.00,CLR,,0.00,0.0,WeatherDisplay:10.37,2013-08-13 03:14:00,
2013-08-12 23:19:00,73.9,67.0,29.92,SE,143,0.0,0.2,79,0.00,CLR,,0.00,0.0,WeatherDisplay:10.37,2013-08-13 03:19:00,
2013-08-12 23:24:00,73.9,67.0,29.92,SE,143,1.2,0.0,79,0.00,CLR,,0.00,0.0,WeatherDisplay:10.37,2013-08-13 03:24:00,
2013-08-12 23:29:00,73.8,66.9,29.92,SE,143,2.3,2.3,79,0.00,CLR,,0.00,0.0,WeatherDisplay:10.37,2013-08-13 03:29:00,
2013-08-12 23:34:00,73.6,66.7,29.91,SE,143,1.2,1.2,79,0.00,CLR,,0.00,0.0,WeatherDisplay:10.37,2013-08-13 03:34:00,
2013-08-12 23:39:00,73.5,66.6,29.91,SE,143,0.0,0.0,79,0.00,CLR,,0.00,0.0,WeatherDisplay:10.37,2013-08-13 03:39:00,
2013-08-12 23:44:00,73.6,67.0,29.91,SE,143,0.0,0.0,80,0.00,CLR,,0.00,0.0,WeatherDisplay:10.37,2013-08-13 03:44:00,
2013-08-12 23:52:00,73.5,66.9,29.91,SE,143,0.0,0.0,80,0.00,CLR,,0.00,0.0,WeatherDisplay:10.37,2013-08-13 03:52:00,
2013-08-12 23:58:00,73.5,66.9,29.91,SE,143,0.0,0.0,80,0.00,CLR,,0.00,0.0,WeatherDisplay:10.37,2013-08-13 03:58:00,